sensor_id;sensor_type;location;lat;lon;timestamp;P1;durP1;ratioP1;P2;durP2;ratioP2
46210;SDS011;52144;48.040;-1.594;2023-02-28T00:00:55;9.38;;;3.42;;
46210;SDS011;52144;48.040;-1.594;2023-02-28T00:03:23;5.63;;;3.05;;
46210;SDS011;52144;48.040;-1.594;2023-02-28T00:05:51;6.28;;;2.97;;
46210;SDS011;52144;48.040;-1.594;2023-02-28T00:08:19;4.88;;;2.83;;
46210;SDS011;52144;48.040;-1.594;2023-02-28T00:10:47;4.57;;;2.72;;
46210;SDS011;52144;48.040;-1.594;2023-02-28T00:13:14;5.25;;;2.65;;
46210;SDS011;52144;48.040;-1.594;2023-02-28T00:15:42;4.82;;;2.97;;
46210;SDS011;52144;48.040;-1.594;2023-02-28T00:18:12;4.32;;;2.83;;
46210;SDS011;52144;48.040;-1.594;2023-02-28T00:20:40;6.75;;;2.90;;
46210;SDS011;52144;48.040;-1.594;2023-02-28T00:23:08;4.70;;;3.20;;
46210;SDS011;52144;48.040;-1.594;2023-02-28T00:25:36;4.43;;;3.53;;
46210;SDS011;52144;48.040;-1.594;2023-02-28T00:28:04;5.30;;;3.10;;
46210;SDS011;52144;48.040;-1.594;2023-02-28T00:30:31;3.67;;;2.97;;
46210;SDS011;52144;48.040;-1.594;2023-02-28T00:32:59;10.93;;;3.60;;
46210;SDS011;52144;48.040;-1.594;2023-02-28T00:35:28;3.95;;;2.80;;
46210;SDS011;52144;48.040;-1.594;2023-02-28T00:37:56;5.90;;;3.05;;
46210;SDS011;52144;48.040;-1.594;2023-02-28T00:40:24;4.93;;;3.45;;
46210;SDS011;52144;48.040;-1.594;2023-02-28T00:42:52;3.80;;;2.70;;
46210;SDS011;52144;48.040;-1.594;2023-02-28T00:45:20;5.78;;;3.42;;
46210;SDS011;52144;48.040;-1.594;2023-02-28T00:47:48;3.50;;;2.97;;
46210;SDS011;52144;48.040;-1.594;2023-02-28T00:50:16;3.38;;;2.67;;
46210;SDS011;52144;48.040;-1.594;2023-02-28T00:52:46;7.50;;;2.55;;
46210;SDS011;52144;48.040;-1.594;2023-02-28T00:55:14;5.43;;;3.00;;
46210;SDS011;52144;48.040;-1.594;2023-02-28T00:57:42;2.67;;;2.35;;
46210;SDS011;52144;48.040;-1.594;2023-02-28T01:00:10;5.78;;;2.35;;
46210;SDS011;52144;48.040;-1.594;2023-02-28T01:02:39;6.95;;;3.22;;
46210;SDS011;52144;48.040;-1.594;2023-02-28T01:05:07;4.15;;;2.95;;
46210;SDS011;52144;48.040;-1.594;2023-02-28T01:07:35;5.78;;;2.30;;
46210;SDS011;52144;48.040;-1.594;2023-02-28T01:10:06;4.82;;;3.08;;
46210;SDS011;52144;48.040;-1.594;2023-02-28T01:12:35;4.80;;;2.13;;
46210;SDS011;52144;48.040;-1.594;2023-02-28T01:15:03;3.03;;;2.40;;
46210;SDS011;52144;48.040;-1.594;2023-02-28T01:17:32;3.10;;;2.25;;
46210;SDS011;52144;48.040;-1.594;2023-02-28T01:20:00;7.75;;;3.72;;
46210;SDS011;52144;48.040;-1.594;2023-02-28T01:22:28;6.40;;;3.55;;
46210;SDS011;52144;48.040;-1.594;2023-02-28T01:24:55;4.28;;;3.00;;
46210;SDS011;52144;48.040;-1.594;2023-02-28T01:27:25;4.88;;;3.30;;
46210;SDS011;52144;48.040;-1.594;2023-02-28T01:29:53;4.28;;;3.17;;
46210;SDS011;52144;48.040;-1.594;2023-02-28T01:32:20;4.43;;;2.92;;
46210;SDS011;52144;48.040;-1.594;2023-02-28T01:34:48;6.38;;;2.75;;
46210;SDS011;52144;48.040;-1.594;2023-02-28T01:37:16;5.35;;;3.80;;
46210;SDS011;52144;48.040;-1.594;2023-02-28T01:39:44;2.53;;;2.33;;
46210;SDS011;52144;48.040;-1.594;2023-02-28T01:42:11;3.53;;;2.30;;
46210;SDS011;52144;48.040;-1.594;2023-02-28T01:45:00;3.72;;;2.55;;
46210;SDS011;52144;48.040;-1.594;2023-02-28T01:47:34;5.22;;;3.28;;
46210;SDS011;52144;48.040;-1.594;2023-02-28T01:50:07;3.67;;;3.00;;
46210;SDS011;52144;48.040;-1.594;2023-02-28T01:52:40;6.45;;;3.55;;
46210;SDS011;52144;48.040;-1.594;2023-02-28T01:55:09;5.03;;;3.40;;
46210;SDS011;52144;48.040;-1.594;2023-02-28T01:57:41;4.03;;;3.28;;
46210;SDS011;52144;48.040;-1.594;2023-02-28T02:02:44;5.47;;;2.80;;
46210;SDS011;52144;48.040;-1.594;2023-02-28T02:05:15;7.40;;;3.17;;
46210;SDS011;52144;48.040;-1.594;2023-02-28T02:07:46;8.45;;;3.20;;
46210;SDS011;52144;48.040;-1.594;2023-02-28T02:10:18;6.63;;;3.60;;
46210;SDS011;52144;48.040;-1.594;2023-02-28T02:13:00;3.03;;;2.35;;
46210;SDS011;52144;48.040;-1.594;2023-02-28T02:15:49;4.07;;;2.88;;
46210;SDS011;52144;48.040;-1.594;2023-02-28T02:18:29;3.40;;;2.65;;
46210;SDS011;52144;48.040;-1.594;2023-02-28T02:21:13;3.95;;;3.53;;
46210;SDS011;52144;48.040;-1.594;2023-02-28T02:23:56;2.72;;;2.45;;
46210;SDS011;52144;48.040;-1.594;2023-02-28T02:26:47;4.00;;;2.65;;
46210;SDS011;52144;48.040;-1.594;2023-02-28T02:29:53;5.90;;;2.35;;
46210;SDS011;52144;48.040;-1.594;2023-02-28T02:32:46;6.38;;;2.47;;
46210;SDS011;52144;48.040;-1.594;2023-02-28T02:35:46;3.50;;;2.33;;
46210;SDS011;52144;48.040;-1.594;2023-02-28T02:38:20;4.15;;;2.95;;
46210;SDS011;52144;48.040;-1.594;2023-02-28T02:41:00;11.40;;;3.65;;
46210;SDS011;52144;48.040;-1.594;2023-02-28T02:43:36;11.15;;;3.47;;
46210;SDS011;52144;48.040;-1.594;2023-02-28T02:46:09;3.42;;;2.78;;
46210;SDS011;52144;48.040;-1.594;2023-02-28T02:48:42;8.38;;;3.28;;
46210;SDS011;52144;48.040;-1.594;2023-02-28T02:51:15;6.75;;;2.65;;
46210;SDS011;52144;48.040;-1.594;2023-02-28T02:53:46;11.25;;;3.67;;
46210;SDS011;52144;48.040;-1.594;2023-02-28T02:56:18;4.45;;;2.92;;
46210;SDS011;52144;48.040;-1.594;2023-02-28T02:58:50;3.55;;;2.38;;
46210;SDS011;52144;48.040;-1.594;2023-02-28T03:01:22;8.10;;;3.97;;
46210;SDS011;52144;48.040;-1.594;2023-02-28T03:03:55;7.55;;;3.63;;
46210;SDS011;52144;48.040;-1.594;2023-02-28T03:06:27;8.32;;;3.17;;
46210;SDS011;52144;48.040;-1.594;2023-02-28T03:08:54;4.93;;;3.05;;
46210;SDS011;52144;48.040;-1.594;2023-02-28T03:11:22;6.20;;;4.00;;
46210;SDS011;52144;48.040;-1.594;2023-02-28T03:16:45;2.92;;;2.38;;
46210;SDS011;52144;48.040;-1.594;2023-02-28T03:19:29;5.22;;;3.58;;
46210;SDS011;52144;48.040;-1.594;2023-02-28T03:22:26;3.72;;;3.10;;
46210;SDS011;52144;48.040;-1.594;2023-02-28T03:25:07;11.55;;;3.88;;
46210;SDS011;52144;48.040;-1.594;2023-02-28T03:30:14;8.95;;;3.90;;
46210;SDS011;52144;48.040;-1.594;2023-02-28T03:32:50;4.32;;;2.83;;
46210;SDS011;52144;48.040;-1.594;2023-02-28T03:35:22;3.95;;;3.55;;
46210;SDS011;52144;48.040;-1.594;2023-02-28T03:37:56;5.47;;;2.90;;
46210;SDS011;52144;48.040;-1.594;2023-02-28T03:40:31;11.63;;;4.55;;
46210;SDS011;52144;48.040;-1.594;2023-02-28T03:43:01;8.95;;;3.95;;
46210;SDS011;52144;48.040;-1.594;2023-02-28T03:45:37;6.55;;;3.90;;
46210;SDS011;52144;48.040;-1.594;2023-02-28T03:48:09;4.80;;;2.90;;
46210;SDS011;52144;48.040;-1.594;2023-02-28T03:50:41;4.00;;;2.83;;
46210;SDS011;52144;48.040;-1.594;2023-02-28T03:53:14;6.90;;;4.72;;
46210;SDS011;52144;48.040;-1.594;2023-02-28T03:55:47;7.97;;;4.28;;
46210;SDS011;52144;48.040;-1.594;2023-02-28T03:58:20;15.52;;;3.50;;
46210;SDS011;52144;48.040;-1.594;2023-02-28T04:00:53;5.38;;;3.65;;
46210;SDS011;52144;48.040;-1.594;2023-02-28T04:03:25;8.35;;;4.30;;
46210;SDS011;52144;48.040;-1.594;2023-02-28T04:05:53;5.97;;;3.05;;
46210;SDS011;52144;48.040;-1.594;2023-02-28T04:08:24;4.90;;;3.63;;
46210;SDS011;52144;48.040;-1.594;2023-02-28T04:10:53;4.93;;;3.97;;
46210;SDS011;52144;48.040;-1.594;2023-02-28T04:13:25;17.77;;;3.80;;
46210;SDS011;52144;48.040;-1.594;2023-02-28T04:15:53;3.50;;;2.85;;
46210;SDS011;52144;48.040;-1.594;2023-02-28T04:18:21;5.88;;;3.60;;
46210;SDS011;52144;48.040;-1.594;2023-02-28T04:20:48;4.15;;;3.40;;
46210;SDS011;52144;48.040;-1.594;2023-02-28T04:23:16;8.75;;;4.47;;
46210;SDS011;52144;48.040;-1.594;2023-02-28T04:25:45;14.40;;;3.65;;
46210;SDS011;52144;48.040;-1.594;2023-02-28T04:28:13;5.18;;;3.38;;
46210;SDS011;52144;48.040;-1.594;2023-02-28T04:30:41;4.63;;;3.85;;
46210;SDS011;52144;48.040;-1.594;2023-02-28T04:33:08;5.13;;;4.03;;
46210;SDS011;52144;48.040;-1.594;2023-02-28T04:35:36;6.25;;;3.88;;
46210;SDS011;52144;48.040;-1.594;2023-02-28T04:38:04;5.93;;;3.95;;
46210;SDS011;52144;48.040;-1.594;2023-02-28T04:40:32;18.45;;;3.85;;
46210;SDS011;52144;48.040;-1.594;2023-02-28T04:43:01;3.67;;;3.15;;
46210;SDS011;52144;48.040;-1.594;2023-02-28T04:45:30;5.15;;;3.40;;
46210;SDS011;52144;48.040;-1.594;2023-02-28T04:48:00;5.18;;;3.75;;
46210;SDS011;52144;48.040;-1.594;2023-02-28T04:50:27;3.67;;;3.30;;
46210;SDS011;52144;48.040;-1.594;2023-02-28T04:52:56;5.93;;;4.55;;
46210;SDS011;52144;48.040;-1.594;2023-02-28T04:55:24;6.30;;;4.03;;
46210;SDS011;52144;48.040;-1.594;2023-02-28T04:57:51;8.88;;;4.07;;
46210;SDS011;52144;48.040;-1.594;2023-02-28T05:00:21;11.35;;;3.72;;
46210;SDS011;52144;48.040;-1.594;2023-02-28T05:02:49;9.60;;;3.97;;
46210;SDS011;52144;48.040;-1.594;2023-02-28T05:05:17;9.10;;;5.85;;
46210;SDS011;52144;48.040;-1.594;2023-02-28T05:07:45;10.55;;;4.78;;
46210;SDS011;52144;48.040;-1.594;2023-02-28T05:10:13;5.88;;;4.43;;
46210;SDS011;52144;48.040;-1.594;2023-02-28T05:12:41;13.40;;;5.47;;
46210;SDS011;52144;48.040;-1.594;2023-02-28T05:15:09;7.30;;;4.35;;
46210;SDS011;52144;48.040;-1.594;2023-02-28T05:17:41;4.60;;;3.88;;
46210;SDS011;52144;48.040;-1.594;2023-02-28T05:20:10;6.18;;;4.03;;
46210;SDS011;52144;48.040;-1.594;2023-02-28T05:22:41;12.05;;;4.68;;
46210;SDS011;52144;48.040;-1.594;2023-02-28T05:25:10;8.43;;;5.03;;
46210;SDS011;52144;48.040;-1.594;2023-02-28T05:27:39;6.50;;;4.28;;
46210;SDS011;52144;48.040;-1.594;2023-02-28T05:30:08;9.38;;;4.55;;
46210;SDS011;52144;48.040;-1.594;2023-02-28T05:32:37;8.65;;;4.28;;
46210;SDS011;52144;48.040;-1.594;2023-02-28T05:35:10;11.52;;;4.63;;
46210;SDS011;52144;48.040;-1.594;2023-02-28T05:37:38;6.88;;;3.78;;
46210;SDS011;52144;48.040;-1.594;2023-02-28T05:40:07;10.25;;;4.50;;
46210;SDS011;52144;48.040;-1.594;2023-02-28T05:42:36;7.35;;;4.88;;
46210;SDS011;52144;48.040;-1.594;2023-02-28T05:45:05;4.68;;;4.22;;
46210;SDS011;52144;48.040;-1.594;2023-02-28T05:47:34;14.30;;;6.20;;
46210;SDS011;52144;48.040;-1.594;2023-02-28T05:50:02;6.55;;;4.55;;
46210;SDS011;52144;48.040;-1.594;2023-02-28T05:52:32;6.72;;;4.13;;
46210;SDS011;52144;48.040;-1.594;2023-02-28T05:55:00;7.20;;;4.97;;
46210;SDS011;52144;48.040;-1.594;2023-02-28T05:57:27;10.52;;;5.45;;
46210;SDS011;52144;48.040;-1.594;2023-02-28T05:59:55;6.65;;;6.05;;
46210;SDS011;52144;48.040;-1.594;2023-02-28T06:02:23;7.13;;;4.88;;
46210;SDS011;52144;48.040;-1.594;2023-02-28T06:04:51;7.68;;;5.97;;
46210;SDS011;52144;48.040;-1.594;2023-02-28T06:07:18;7.13;;;4.95;;
46210;SDS011;52144;48.040;-1.594;2023-02-28T06:09:49;6.93;;;5.63;;
46210;SDS011;52144;48.040;-1.594;2023-02-28T06:12:17;6.15;;;4.50;;
46210;SDS011;52144;48.040;-1.594;2023-02-28T06:14:45;19.63;;;5.82;;
46210;SDS011;52144;48.040;-1.594;2023-02-28T06:17:13;7.05;;;4.63;;
46210;SDS011;52144;48.040;-1.594;2023-02-28T06:19:41;5.40;;;4.75;;
46210;SDS011;52144;48.040;-1.594;2023-02-28T06:22:08;6.93;;;4.05;;
46210;SDS011;52144;48.040;-1.594;2023-02-28T06:24:36;11.30;;;5.80;;
46210;SDS011;52144;48.040;-1.594;2023-02-28T06:27:05;6.78;;;4.40;;
46210;SDS011;52144;48.040;-1.594;2023-02-28T06:29:33;10.77;;;5.07;;
46210;SDS011;52144;48.040;-1.594;2023-02-28T06:32:02;7.25;;;4.25;;
46210;SDS011;52144;48.040;-1.594;2023-02-28T06:34:30;11.20;;;6.93;;
46210;SDS011;52144;48.040;-1.594;2023-02-28T06:36:57;9.65;;;6.28;;
46210;SDS011;52144;48.040;-1.594;2023-02-28T06:39:28;7.60;;;5.05;;
46210;SDS011;52144;48.040;-1.594;2023-02-28T06:41:56;5.22;;;4.47;;
46210;SDS011;52144;48.040;-1.594;2023-02-28T06:44:25;8.93;;;5.75;;
46210;SDS011;52144;48.040;-1.594;2023-02-28T06:46:53;6.38;;;5.35;;
46210;SDS011;52144;48.040;-1.594;2023-02-28T06:49:21;8.25;;;5.50;;
46210;SDS011;52144;48.040;-1.594;2023-02-28T06:51:49;10.27;;;6.25;;
46210;SDS011;52144;48.040;-1.594;2023-02-28T06:54:16;10.35;;;4.93;;
46210;SDS011;52144;48.040;-1.594;2023-02-28T06:56:44;7.05;;;5.43;;
46210;SDS011;52144;48.040;-1.594;2023-02-28T06:59:13;7.55;;;4.90;;
46210;SDS011;52144;48.040;-1.594;2023-02-28T07:01:42;8.55;;;4.88;;
46210;SDS011;52144;48.040;-1.594;2023-02-28T07:04:10;9.32;;;4.88;;
46210;SDS011;52144;48.040;-1.594;2023-02-28T07:06:39;8.85;;;5.63;;
46210;SDS011;52144;48.040;-1.594;2023-02-28T07:09:07;6.50;;;4.60;;
46210;SDS011;52144;48.040;-1.594;2023-02-28T07:11:35;11.45;;;5.22;;
46210;SDS011;52144;48.040;-1.594;2023-02-28T07:14:03;12.80;;;6.10;;
46210;SDS011;52144;48.040;-1.594;2023-02-28T07:16:31;7.80;;;6.30;;
46210;SDS011;52144;48.040;-1.594;2023-02-28T07:19:00;10.55;;;6.43;;
46210;SDS011;52144;48.040;-1.594;2023-02-28T07:21:28;13.98;;;5.85;;
46210;SDS011;52144;48.040;-1.594;2023-02-28T07:23:56;9.02;;;6.07;;
46210;SDS011;52144;48.040;-1.594;2023-02-28T07:26:24;17.48;;;6.75;;
46210;SDS011;52144;48.040;-1.594;2023-02-28T07:28:51;9.15;;;6.43;;
46210;SDS011;52144;48.040;-1.594;2023-02-28T07:31:20;8.30;;;5.40;;
46210;SDS011;52144;48.040;-1.594;2023-02-28T07:33:48;15.32;;;5.35;;
46210;SDS011;52144;48.040;-1.594;2023-02-28T07:36:17;8.85;;;4.80;;
46210;SDS011;52144;48.040;-1.594;2023-02-28T07:38:46;9.70;;;5.93;;
46210;SDS011;52144;48.040;-1.594;2023-02-28T07:41:16;10.98;;;6.07;;
46210;SDS011;52144;48.040;-1.594;2023-02-28T07:43:45;10.55;;;6.00;;
46210;SDS011;52144;48.040;-1.594;2023-02-28T07:46:14;11.30;;;5.68;;
46210;SDS011;52144;48.040;-1.594;2023-02-28T07:48:44;16.80;;;6.65;;
46210;SDS011;52144;48.040;-1.594;2023-02-28T07:51:12;10.27;;;6.95;;
46210;SDS011;52144;48.040;-1.594;2023-02-28T07:53:41;9.90;;;6.93;;
46210;SDS011;52144;48.040;-1.594;2023-02-28T07:56:09;14.60;;;7.25;;
46210;SDS011;52144;48.040;-1.594;2023-02-28T07:58:37;9.85;;;7.53;;
46210;SDS011;52144;48.040;-1.594;2023-02-28T08:01:05;7.53;;;6.65;;
46210;SDS011;52144;48.040;-1.594;2023-02-28T08:03:34;8.57;;;6.00;;
46210;SDS011;52144;48.040;-1.594;2023-02-28T08:06:03;11.40;;;7.15;;
46210;SDS011;52144;48.040;-1.594;2023-02-28T08:08:31;13.48;;;8.35;;
46210;SDS011;52144;48.040;-1.594;2023-02-28T08:11:01;9.32;;;6.07;;
46210;SDS011;52144;48.040;-1.594;2023-02-28T08:13:30;12.10;;;7.72;;
46210;SDS011;52144;48.040;-1.594;2023-02-28T08:15:57;13.02;;;5.90;;
46210;SDS011;52144;48.040;-1.594;2023-02-28T08:18:25;10.15;;;7.13;;
46210;SDS011;52144;48.040;-1.594;2023-02-28T08:20:53;11.85;;;6.75;;
46210;SDS011;52144;48.040;-1.594;2023-02-28T08:23:21;14.68;;;8.07;;
46210;SDS011;52144;48.040;-1.594;2023-02-28T08:25:52;11.32;;;6.90;;
46210;SDS011;52144;48.040;-1.594;2023-02-28T08:28:22;17.45;;;7.75;;
46210;SDS011;52144;48.040;-1.594;2023-02-28T08:30:52;10.40;;;5.65;;
46210;SDS011;52144;48.040;-1.594;2023-02-28T08:33:21;10.95;;;7.07;;
46210;SDS011;52144;48.040;-1.594;2023-02-28T08:35:51;11.68;;;7.72;;
46210;SDS011;52144;48.040;-1.594;2023-02-28T08:38:20;12.45;;;7.32;;
46210;SDS011;52144;48.040;-1.594;2023-02-28T08:40:48;16.38;;;9.35;;
46210;SDS011;52144;48.040;-1.594;2023-02-28T08:43:16;9.52;;;7.20;;
46210;SDS011;52144;48.040;-1.594;2023-02-28T08:45:46;15.00;;;9.15;;
46210;SDS011;52144;48.040;-1.594;2023-02-28T08:48:13;9.07;;;6.10;;
46210;SDS011;52144;48.040;-1.594;2023-02-28T08:50:44;13.88;;;7.80;;
46210;SDS011;52144;48.040;-1.594;2023-02-28T08:53:30;11.52;;;7.75;;
46210;SDS011;52144;48.040;-1.594;2023-02-28T08:55:58;12.68;;;7.07;;
46210;SDS011;52144;48.040;-1.594;2023-02-28T08:58:27;17.75;;;7.72;;
46210;SDS011;52144;48.040;-1.594;2023-02-28T09:00:56;12.85;;;8.20;;
46210;SDS011;52144;48.040;-1.594;2023-02-28T09:03:24;15.05;;;6.93;;
46210;SDS011;52144;48.040;-1.594;2023-02-28T09:05:56;13.88;;;7.15;;
46210;SDS011;52144;48.040;-1.594;2023-02-28T09:08:28;12.88;;;6.25;;
46210;SDS011;52144;48.040;-1.594;2023-02-28T09:10:57;15.82;;;6.20;;
46210;SDS011;52144;48.040;-1.594;2023-02-28T09:13:27;10.70;;;6.45;;
46210;SDS011;52144;48.040;-1.594;2023-02-28T09:15:58;19.75;;;6.93;;
46210;SDS011;52144;48.040;-1.594;2023-02-28T09:18:27;17.63;;;8.18;;
46210;SDS011;52144;48.040;-1.594;2023-02-28T09:20:55;12.50;;;6.78;;
46210;SDS011;52144;48.040;-1.594;2023-02-28T09:23:24;11.07;;;6.13;;
46210;SDS011;52144;48.040;-1.594;2023-02-28T09:25:53;12.65;;;5.75;;
46210;SDS011;52144;48.040;-1.594;2023-02-28T09:28:22;11.73;;;6.95;;
46210;SDS011;52144;48.040;-1.594;2023-02-28T09:30:51;9.63;;;4.88;;
46210;SDS011;52144;48.040;-1.594;2023-02-28T09:33:22;8.38;;;6.07;;
46210;SDS011;52144;48.040;-1.594;2023-02-28T09:35:50;10.07;;;6.03;;
46210;SDS011;52144;48.040;-1.594;2023-02-28T09:38:24;12.85;;;6.40;;
46210;SDS011;52144;48.040;-1.594;2023-02-28T09:40:52;14.13;;;5.82;;
46210;SDS011;52144;48.040;-1.594;2023-02-28T09:43:23;10.02;;;4.95;;
46210;SDS011;52144;48.040;-1.594;2023-02-28T09:45:56;9.40;;;4.40;;
46210;SDS011;52144;48.040;-1.594;2023-02-28T09:48:31;9.93;;;5.20;;
46210;SDS011;52144;48.040;-1.594;2023-02-28T09:51:05;6.88;;;3.33;;
46210;SDS011;52144;48.040;-1.594;2023-02-28T09:53:40;5.97;;;3.90;;
46210;SDS011;52144;48.040;-1.594;2023-02-28T09:56:15;7.45;;;4.53;;
46210;SDS011;52144;48.040;-1.594;2023-02-28T09:58:53;7.10;;;4.70;;
46210;SDS011;52144;48.040;-1.594;2023-02-28T10:01:24;8.70;;;4.68;;
46210;SDS011;52144;48.040;-1.594;2023-02-28T10:04:00;8.02;;;4.85;;
46210;SDS011;52144;48.040;-1.594;2023-02-28T10:06:36;7.85;;;4.22;;
46210;SDS011;52144;48.040;-1.594;2023-02-28T10:09:13;5.68;;;4.05;;
46210;SDS011;52144;48.040;-1.594;2023-02-28T10:11:46;6.07;;;3.58;;
46210;SDS011;52144;48.040;-1.594;2023-02-28T10:16:50;10.50;;;3.53;;
46210;SDS011;52144;48.040;-1.594;2023-02-28T10:19:24;6.65;;;3.88;;
46210;SDS011;52144;48.040;-1.594;2023-02-28T10:21:58;5.80;;;3.08;;
46210;SDS011;52144;48.040;-1.594;2023-02-28T10:24:29;4.72;;;2.80;;
46210;SDS011;52144;48.040;-1.594;2023-02-28T10:27:09;4.78;;;3.80;;
46210;SDS011;52144;48.040;-1.594;2023-02-28T10:29:42;4.38;;;2.95;;
46210;SDS011;52144;48.040;-1.594;2023-02-28T10:32:12;3.95;;;2.70;;
46210;SDS011;52144;48.040;-1.594;2023-02-28T10:34:45;6.22;;;3.03;;
46210;SDS011;52144;48.040;-1.594;2023-02-28T10:37:18;5.32;;;2.40;;
46210;SDS011;52144;48.040;-1.594;2023-02-28T10:39:47;4.40;;;2.97;;
46210;SDS011;52144;48.040;-1.594;2023-02-28T10:42:19;4.95;;;3.13;;
46210;SDS011;52144;48.040;-1.594;2023-02-28T10:45:04;7.05;;;3.42;;
46210;SDS011;52144;48.040;-1.594;2023-02-28T10:47:34;4.55;;;2.88;;
46210;SDS011;52144;48.040;-1.594;2023-02-28T10:56:24;2.55;;;2.35;;
46210;SDS011;52144;48.040;-1.594;2023-02-28T10:58:53;4.47;;;2.80;;
46210;SDS011;52144;48.040;-1.594;2023-02-28T11:01:23;3.42;;;2.47;;
46210;SDS011;52144;48.040;-1.594;2023-02-28T11:04:01;2.92;;;2.15;;
46210;SDS011;52144;48.040;-1.594;2023-02-28T11:06:29;3.25;;;2.58;;
46210;SDS011;52144;48.040;-1.594;2023-02-28T11:09:01;4.22;;;2.67;;
46210;SDS011;52144;48.040;-1.594;2023-02-28T11:11:41;2.67;;;2.47;;
46210;SDS011;52144;48.040;-1.594;2023-02-28T11:14:14;3.92;;;2.88;;
46210;SDS011;52144;48.040;-1.594;2023-02-28T11:16:46;10.25;;;2.33;;
46210;SDS011;52144;48.040;-1.594;2023-02-28T11:19:17;5.45;;;2.42;;
46210;SDS011;52144;48.040;-1.594;2023-02-28T11:21:52;4.00;;;2.47;;
46210;SDS011;52144;48.040;-1.594;2023-02-28T11:24:24;6.10;;;2.55;;
46210;SDS011;52144;48.040;-1.594;2023-02-28T11:26:55;4.35;;;2.17;;
46210;SDS011;52144;48.040;-1.594;2023-02-28T11:29:24;5.18;;;2.33;;
46210;SDS011;52144;48.040;-1.594;2023-02-28T11:32:11;3.50;;;2.92;;
46210;SDS011;52144;48.040;-1.594;2023-02-28T11:34:41;3.70;;;1.98;;
46210;SDS011;52144;48.040;-1.594;2023-02-28T11:37:11;2.40;;;2.00;;
46210;SDS011;52144;48.040;-1.594;2023-02-28T11:39:42;2.58;;;2.20;;
46210;SDS011;52144;48.040;-1.594;2023-02-28T11:42:23;3.35;;;2.80;;
46210;SDS011;52144;48.040;-1.594;2023-02-28T11:45:07;3.42;;;2.03;;
46210;SDS011;52144;48.040;-1.594;2023-02-28T11:47:45;3.08;;;2.50;;
46210;SDS011;52144;48.040;-1.594;2023-02-28T11:50:20;4.90;;;2.70;;
46210;SDS011;52144;48.040;-1.594;2023-02-28T11:52:55;4.65;;;2.83;;
46210;SDS011;52144;48.040;-1.594;2023-02-28T11:55:26;8.63;;;2.83;;
46210;SDS011;52144;48.040;-1.594;2023-02-28T12:01:00;5.35;;;2.70;;
46210;SDS011;52144;48.040;-1.594;2023-02-28T12:03:36;2.40;;;1.90;;
46210;SDS011;52144;48.040;-1.594;2023-02-28T12:06:15;2.75;;;2.33;;
46210;SDS011;52144;48.040;-1.594;2023-02-28T12:08:49;1.77;;;1.67;;
46210;SDS011;52144;48.040;-1.594;2023-02-28T12:11:31;3.05;;;2.13;;
46210;SDS011;52144;48.040;-1.594;2023-02-28T12:17:12;2.78;;;2.00;;
46210;SDS011;52144;48.040;-1.594;2023-02-28T12:19:51;3.40;;;2.20;;
46210;SDS011;52144;48.040;-1.594;2023-02-28T12:22:29;2.13;;;1.50;;
46210;SDS011;52144;48.040;-1.594;2023-02-28T12:27:50;3.97;;;2.92;;
46210;SDS011;52144;48.040;-1.594;2023-02-28T12:30:21;4.80;;;2.80;;
46210;SDS011;52144;48.040;-1.594;2023-02-28T12:32:52;10.38;;;3.30;;
46210;SDS011;52144;48.040;-1.594;2023-02-28T12:35:24;10.85;;;2.90;;
46210;SDS011;52144;48.040;-1.594;2023-02-28T12:38:01;4.25;;;2.38;;
46210;SDS011;52144;48.040;-1.594;2023-02-28T12:40:34;7.90;;;2.40;;
46210;SDS011;52144;48.040;-1.594;2023-02-28T12:43:15;4.40;;;2.70;;
46210;SDS011;52144;48.040;-1.594;2023-02-28T12:45:46;2.88;;;2.47;;
46210;SDS011;52144;48.040;-1.594;2023-02-28T12:48:19;3.05;;;2.45;;
46210;SDS011;52144;48.040;-1.594;2023-02-28T12:50:49;3.75;;;2.25;;
46210;SDS011;52144;48.040;-1.594;2023-02-28T12:53:20;5.40;;;3.17;;
46210;SDS011;52144;48.040;-1.594;2023-02-28T12:55:56;4.25;;;3.00;;
46210;SDS011;52144;48.040;-1.594;2023-02-28T12:58:33;6.75;;;3.55;;
46210;SDS011;52144;48.040;-1.594;2023-02-28T13:01:11;3.28;;;2.38;;
46210;SDS011;52144;48.040;-1.594;2023-02-28T13:04:04;2.20;;;2.00;;
46210;SDS011;52144;48.040;-1.594;2023-02-28T13:06:45;5.55;;;2.53;;
46210;SDS011;52144;48.040;-1.594;2023-02-28T13:11:55;3.35;;;2.75;;
46210;SDS011;52144;48.040;-1.594;2023-02-28T13:14:27;6.38;;;2.63;;
46210;SDS011;52144;48.040;-1.594;2023-02-28T13:17:01;8.73;;;3.00;;
46210;SDS011;52144;48.040;-1.594;2023-02-28T13:19:37;4.78;;;3.50;;
46210;SDS011;52144;48.040;-1.594;2023-02-28T13:22:15;3.40;;;2.45;;
46210;SDS011;52144;48.040;-1.594;2023-02-28T13:24:46;2.50;;;1.67;;
46210;SDS011;52144;48.040;-1.594;2023-02-28T13:33:28;2.95;;;1.60;;
46210;SDS011;52144;48.040;-1.594;2023-02-28T13:36:03;8.85;;;2.25;;
46210;SDS011;52144;48.040;-1.594;2023-02-28T13:38:36;3.03;;;2.40;;
46210;SDS011;52144;48.040;-1.594;2023-02-28T13:44:15;3.65;;;2.42;;
46210;SDS011;52144;48.040;-1.594;2023-02-28T13:49:52;4.85;;;2.13;;
46210;SDS011;52144;48.040;-1.594;2023-02-28T13:52:22;9.60;;;2.53;;
46210;SDS011;52144;48.040;-1.594;2023-02-28T13:57:59;2.92;;;2.15;;
46210;SDS011;52144;48.040;-1.594;2023-02-28T14:00:43;9.35;;;1.83;;
46210;SDS011;52144;48.040;-1.594;2023-02-28T14:03:28;4.60;;;2.10;;
46210;SDS011;52144;48.040;-1.594;2023-02-28T14:08:57;3.80;;;1.90;;
46210;SDS011;52144;48.040;-1.594;2023-02-28T14:11:30;4.88;;;2.42;;
46210;SDS011;52144;48.040;-1.594;2023-02-28T14:14:00;2.90;;;2.00;;
46210;SDS011;52144;48.040;-1.594;2023-02-28T14:16:35;2.90;;;1.90;;
46210;SDS011;52144;48.040;-1.594;2023-02-28T14:19:10;4.70;;;2.30;;
46210;SDS011;52144;48.040;-1.594;2023-02-28T14:21:46;2.78;;;2.17;;
46210;SDS011;52144;48.040;-1.594;2023-02-28T14:27:40;3.85;;;2.10;;
46210;SDS011;52144;48.040;-1.594;2023-02-28T14:30:26;5.88;;;2.50;;
46210;SDS011;52144;48.040;-1.594;2023-02-28T14:33:14;2.80;;;2.15;;
46210;SDS011;52144;48.040;-1.594;2023-02-28T14:35:53;2.75;;;2.22;;
46210;SDS011;52144;48.040;-1.594;2023-02-28T14:38:31;8.50;;;1.65;;
46210;SDS011;52144;48.040;-1.594;2023-02-28T14:41:03;6.57;;;2.13;;
46210;SDS011;52144;48.040;-1.594;2023-02-28T14:43:34;4.47;;;2.38;;
46210;SDS011;52144;48.040;-1.594;2023-02-28T14:46:02;3.17;;;2.80;;
46210;SDS011;52144;48.040;-1.594;2023-02-28T14:48:33;2.13;;;1.95;;
46210;SDS011;52144;48.040;-1.594;2023-02-28T14:51:04;3.55;;;3.25;;
46210;SDS011;52144;48.040;-1.594;2023-02-28T14:53:36;5.88;;;2.38;;
46210;SDS011;52144;48.040;-1.594;2023-02-28T14:56:05;4.20;;;2.42;;
46210;SDS011;52144;48.040;-1.594;2023-02-28T14:58:34;7.55;;;2.40;;
46210;SDS011;52144;48.040;-1.594;2023-02-28T15:01:03;4.95;;;2.72;;
46210;SDS011;52144;48.040;-1.594;2023-02-28T15:03:32;4.32;;;2.40;;
46210;SDS011;52144;48.040;-1.594;2023-02-28T15:06:02;2.85;;;2.00;;
46210;SDS011;52144;48.040;-1.594;2023-02-28T15:08:31;6.32;;;3.05;;
46210;SDS011;52144;48.040;-1.594;2023-02-28T15:11:04;2.75;;;2.20;;
46210;SDS011;52144;48.040;-1.594;2023-02-28T15:13:36;9.82;;;2.95;;
46210;SDS011;52144;48.040;-1.594;2023-02-28T15:16:07;3.17;;;2.28;;
46210;SDS011;52144;48.040;-1.594;2023-02-28T15:18:42;3.42;;;2.70;;
46210;SDS011;52144;48.040;-1.594;2023-02-28T15:21:15;3.17;;;2.15;;
46210;SDS011;52144;48.040;-1.594;2023-02-28T15:23:45;5.18;;;2.63;;
46210;SDS011;52144;48.040;-1.594;2023-02-28T15:26:18;4.55;;;3.50;;
46210;SDS011;52144;48.040;-1.594;2023-02-28T15:28:48;11.38;;;3.92;;
46210;SDS011;52144;48.040;-1.594;2023-02-28T15:31:21;2.08;;;1.88;;
46210;SDS011;52144;48.040;-1.594;2023-02-28T15:33:54;7.18;;;3.15;;
46210;SDS011;52144;48.040;-1.594;2023-02-28T15:36:24;4.05;;;2.58;;
46210;SDS011;52144;48.040;-1.594;2023-02-28T15:38:55;4.68;;;3.20;;
46210;SDS011;52144;48.040;-1.594;2023-02-28T15:41:42;8.95;;;3.78;;
46210;SDS011;52144;48.040;-1.594;2023-02-28T15:44:13;5.72;;;3.40;;
46210;SDS011;52144;48.040;-1.594;2023-02-28T15:46:44;5.00;;;3.58;;